Check out our new PWSWeather beta!
PWSweather.com
Personal Weather Stations
Station Observations
STEFBZH56
PontScorff, PontScorffFR

PontScorffPontScorffFR

Lat: 47.831518, Lon: -3.4222200000000385

Elevation: 141

Station Type: Oregon WMR200

http://www.meteo-pontscorff.fr

High Low Average
Temperature 54.4°F12.4°C 40.6°F4.8°C 47.2°F8.4°C
Dew Point 51.4°F10.8°C 33.2°F0.7°C 42.0°F5.6°C
Winds 20.7 mph 33.3 kmh 2.3 mph 3.7 kmh 8.0 mph W12.9 kmh W
Wind Gusts 30.6 mph49.2 kmh 3.4 mph5.5 kmh 13.0 mph20.9 kmh
Humidity 98% 62% 83%
Pressure 29.92 in1013.2 mb 29.74 in1007.1 mb -
Precipitation 0.13 in3.3 mm - -
Hour Temp Dew Point Humidity Winds Wind Gusts Pressure Precip Precip Rate Daily Precip Total
12:00 AM 52.0°F11.1°C 51.4°F10.8°C 98% 3.9 mph W6.3 kmh W 6.3 mph10.1 kmh 29.92 in1013.2 mb 0.03 in0.8 mm 0.00 in0.0 mm 0.03 in0.8 mm
12:05 AM 52.0°F11.1°C 51.4°F10.8°C 98% 3.7 mph W6.0 kmh W 5.4 mph8.7 kmh 29.92 in1013.2 mb 0.03 in0.8 mm 0.00 in0.0 mm 0.03 in0.8 mm
12:10 AM 52.0°F11.1°C 51.4°F10.8°C 98% 3.6 mph W5.8 kmh W 5.1 mph8.2 kmh 29.92 in1013.2 mb 0.00 in0.0 mm 0.00 in0.0 mm 0.03 in0.8 mm
12:15 AM 51.8°F11.0°C 51.3°F10.7°C 98% 4.0 mph WSW6.4 kmh WSW 6.3 mph10.1 kmh 29.92 in1013.2 mb 0.00 in0.0 mm 0.00 in0.0 mm 0.03 in0.8 mm
12:20 AM 51.8°F11.0°C 51.2°F10.7°C 98% 4.5 mph WSW7.2 kmh WSW 7.4 mph11.9 kmh 29.92 in1013.2 mb 0.00 in0.0 mm 0.00 in0.0 mm 0.03 in0.8 mm
12:25 AM 51.6°F10.9°C 51.1°F10.6°C 98% 5.6 mph W9.0 kmh W 8.3 mph13.4 kmh 29.91 in1012.9 mb 0.00 in0.0 mm 0.00 in0.0 mm 0.03 in0.8 mm
12:30 AM 51.4°F10.8°C 50.9°F10.5°C 98% 5.4 mph W8.7 kmh W 9.8 mph15.8 kmh 29.89 in1012.2 mb 0.00 in0.0 mm 0.00 in0.0 mm 0.03 in0.8 mm
12:35 AM 51.4°F10.8°C 50.9°F10.5°C 98% 5.3 mph WSW8.5 kmh WSW 8.3 mph13.4 kmh 29.89 in1012.2 mb 0.00 in0.0 mm 0.00 in0.0 mm 0.03 in0.8 mm
12:40 AM 51.4°F10.8°C 50.9°F10.5°C 98% 5.7 mph WSW9.2 kmh WSW 8.3 mph13.4 kmh 29.89 in1012.2 mb 0.00 in0.0 mm 0.00 in0.0 mm 0.03 in0.8 mm
12:45 AM 51.3°F10.7°C 50.7°F10.4°C 98% 6.4 mph WSW10.3 kmh WSW 9.4 mph15.1 kmh 29.89 in1012.2 mb 0.00 in0.0 mm 0.00 in0.0 mm 0.03 in0.8 mm
12:50 AM 51.3°F10.7°C 50.7°F10.4°C 98% 6.5 mph WSW10.5 kmh WSW 9.8 mph15.8 kmh 29.89 in1012.2 mb 0.00 in0.0 mm 0.00 in0.0 mm 0.03 in0.8 mm
12:55 AM 51.2°F10.7°C 50.6°F10.3°C 98% 5.0 mph W8.0 kmh W 7.6 mph12.2 kmh 29.89 in1012.2 mb 0.00 in0.0 mm 0.00 in0.0 mm 0.03 in0.8 mm
01:00 AM 51.1°F10.6°C 50.5°F10.3°C 98% 5.1 mph W8.2 kmh W 7.4 mph11.9 kmh 29.89 in1012.2 mb 0.00 in0.0 mm 0.00 in0.0 mm 0.03 in0.8 mm
01:05 AM 51.1°F10.6°C 50.5°F10.3°C 98% 6.0 mph W9.7 kmh W 9.2 mph14.8 kmh 29.89 in1012.2 mb 0.00 in0.0 mm 0.00 in0.0 mm 0.03 in0.8 mm
01:10 AM 51.0°F10.6°C 50.4°F10.2°C 98% 8.2 mph WNW13.2 kmh WNW 13.0 mph20.9 kmh 29.90 in1012.5 mb 0.00 in0.0 mm 0.00 in0.0 mm 0.03 in0.8 mm
01:15 AM 50.5°F10.3°C 49.9°F9.9°C 98% 8.3 mph WNW13.4 kmh WNW 15.4 mph24.8 kmh 29.92 in1013.2 mb 0.00 in0.0 mm 0.00 in0.0 mm 0.03 in0.8 mm
01:20 AM 50.4°F10.2°C 49.8°F9.9°C 98% 5.6 mph WNW9.0 kmh WNW 11.2 mph18.0 kmh 29.92 in1013.2 mb 0.00 in0.0 mm 0.00 in0.0 mm 0.03 in0.8 mm
01:25 AM 50.0°F10.0°C 49.5°F9.7°C 98% 6.9 mph WNW11.1 kmh WNW 10.7 mph17.2 kmh 29.91 in1012.9 mb 0.00 in0.0 mm 0.00 in0.0 mm 0.03 in0.8 mm
01:30 AM 49.7°F9.8°C 49.1°F9.5°C 98% 5.8 mph W9.3 kmh W 8.9 mph14.3 kmh 29.89 in1012.2 mb 0.00 in0.0 mm 0.00 in0.0 mm 0.03 in0.8 mm
01:35 AM 49.4°F9.7°C 48.8°F9.3°C 98% 6.4 mph W10.3 kmh W 9.4 mph15.1 kmh 29.89 in1012.2 mb 0.00 in0.0 mm 0.00 in0.0 mm 0.03 in0.8 mm
01:40 AM 49.0°F9.4°C 48.4°F9.1°C 98% 5.4 mph W8.7 kmh W 8.1 mph13.0 kmh 29.89 in1012.2 mb 0.00 in0.0 mm 0.00 in0.0 mm 0.03 in0.8 mm
01:45 AM 48.9°F9.4°C 48.4°F9.1°C 98% 6.0 mph W9.7 kmh W 8.1 mph13.0 kmh 29.89 in1012.2 mb 0.00 in0.0 mm 0.00 in0.0 mm 0.03 in0.8 mm
01:50 AM 48.7°F9.3°C 48.2°F9.0°C 98% 5.5 mph WNW8.9 kmh WNW 8.3 mph13.4 kmh 29.89 in1012.2 mb 0.00 in0.0 mm 0.00 in0.0 mm 0.03 in0.8 mm
01:55 AM 48.6°F9.2°C 48.1°F8.9°C 98% 4.2 mph WNW6.8 kmh WNW 6.3 mph10.1 kmh 29.89 in1012.2 mb 0.00 in0.0 mm 0.00 in0.0 mm 0.03 in0.8 mm
02:00 AM 48.6°F9.2°C 48.0°F8.9°C 98% 5.4 mph WNW8.7 kmh WNW 7.4 mph11.9 kmh 29.89 in1012.2 mb 0.00 in0.0 mm 0.00 in0.0 mm 0.03 in0.8 mm
02:05 AM 48.6°F9.2°C 48.0°F8.9°C 98% 4.9 mph WNW7.9 kmh WNW 7.8 mph12.6 kmh 29.89 in1012.2 mb 0.00 in0.0 mm 0.00 in0.0 mm 0.03 in0.8 mm
02:10 AM 48.6°F9.2°C 48.0°F8.9°C 98% 4.4 mph WNW7.1 kmh WNW 7.4 mph11.9 kmh 29.89 in1012.2 mb 0.00 in0.0 mm 0.00 in0.0 mm 0.03 in0.8 mm
02:15 AM 48.4°F9.1°C 47.9°F8.8°C 98% 4.4 mph NW7.1 kmh NW 7.6 mph12.2 kmh 29.89 in1012.2 mb 0.00 in0.0 mm 0.00 in0.0 mm 0.03 in0.8 mm
02:20 AM 48.3°F9.1°C 47.7°F8.7°C 98% 6.0 mph WNW9.7 kmh WNW 8.9 mph14.3 kmh 29.89 in1012.2 mb 0.04 in1.0 mm 0.48 in12.2 mm 0.04 in1.0 mm
02:25 AM 48.2°F9.0°C 47.7°F8.7°C 98% 5.5 mph WNW8.9 kmh WNW 8.9 mph14.3 kmh 29.88 in1011.9 mb 0.04 in1.0 mm 0.00 in0.0 mm 0.04 in1.0 mm
02:30 AM 48.2°F9.0°C 47.7°F8.7°C 98% 5.3 mph WNW8.5 kmh WNW 7.4 mph11.9 kmh 29.86 in1011.2 mb 0.04 in1.0 mm 0.00 in0.0 mm 0.04 in1.0 mm
02:35 AM 48.2°F9.0°C 47.7°F8.7°C 98% 5.0 mph WNW8.0 kmh WNW 8.3 mph13.4 kmh 29.86 in1011.2 mb 0.04 in1.0 mm 0.00 in0.0 mm 0.04 in1.0 mm
02:40 AM 48.2°F9.0°C 47.7°F8.7°C 98% 5.1 mph WNW8.2 kmh WNW 8.7 mph14.0 kmh 29.87 in1011.5 mb 0.04 in1.0 mm 0.00 in0.0 mm 0.04 in1.0 mm
02:45 AM 48.1°F8.9°C 47.5°F8.6°C 98% 4.9 mph WNW7.9 kmh WNW 6.9 mph11.1 kmh 29.89 in1012.2 mb 0.04 in1.0 mm 0.00 in0.0 mm 0.04 in1.0 mm
02:50 AM 48.0°F8.9°C 47.5°F8.6°C 98% 4.4 mph WNW7.1 kmh WNW 6.9 mph11.1 kmh 29.89 in1012.2 mb 0.04 in1.0 mm 0.00 in0.0 mm 0.04 in1.0 mm
02:55 AM 47.8°F8.8°C 47.3°F8.5°C 98% 5.7 mph WNW9.2 kmh WNW 8.1 mph13.0 kmh 29.89 in1012.2 mb 0.04 in1.0 mm 0.00 in0.0 mm 0.04 in1.0 mm
03:00 AM 47.7°F8.7°C 47.1°F8.4°C 98% 5.3 mph WNW8.5 kmh WNW 8.1 mph13.0 kmh 29.89 in1012.2 mb 0.04 in1.0 mm 0.00 in0.0 mm 0.04 in1.0 mm
03:05 AM 47.6°F8.7°C 47.0°F8.3°C 98% 5.9 mph WNW9.5 kmh WNW 10.5 mph16.9 kmh 29.89 in1012.2 mb 0.04 in1.0 mm 0.00 in0.0 mm 0.04 in1.0 mm
03:10 AM 47.5°F8.6°C 46.9°F8.3°C 98% 5.2 mph WNW8.4 kmh WNW 7.6 mph12.2 kmh 29.89 in1012.2 mb 0.00 in0.0 mm 0.00 in0.0 mm 0.04 in1.0 mm
03:15 AM 47.4°F8.6°C 46.8°F8.2°C 98% 4.7 mph WNW7.6 kmh WNW 7.6 mph12.2 kmh 29.89 in1012.2 mb 0.00 in0.0 mm 0.00 in0.0 mm 0.04 in1.0 mm
03:20 AM 47.3°F8.5°C 46.8°F8.2°C 98% 5.5 mph WNW8.9 kmh WNW 10.1 mph16.3 kmh 29.89 in1012.2 mb 0.00 in0.0 mm 0.00 in0.0 mm 0.04 in1.0 mm
03:25 AM 47.3°F8.5°C 46.8°F8.2°C 98% 5.0 mph WNW8.0 kmh WNW 7.6 mph12.2 kmh 29.88 in1011.9 mb 0.00 in0.0 mm 0.00 in0.0 mm 0.04 in1.0 mm
03:30 AM 47.3°F8.5°C 46.7°F8.2°C 98% 4.7 mph W7.6 kmh W 6.9 mph11.1 kmh 29.86 in1011.2 mb 0.00 in0.0 mm 0.00 in0.0 mm 0.04 in1.0 mm
03:35 AM 47.1°F8.4°C 46.6°F8.1°C 98% 4.0 mph W6.4 kmh W 7.4 mph11.9 kmh 29.86 in1011.2 mb 0.00 in0.0 mm 0.00 in0.0 mm 0.04 in1.0 mm
03:40 AM 47.1°F8.4°C 46.6°F8.1°C 98% 3.8 mph W6.1 kmh W 5.1 mph8.2 kmh 29.87 in1011.5 mb 0.00 in0.0 mm 0.00 in0.0 mm 0.04 in1.0 mm
03:45 AM 47.1°F8.4°C 46.6°F8.1°C 98% 3.8 mph WSW6.1 kmh WSW 5.1 mph8.2 kmh 29.89 in1012.2 mb 0.00 in0.0 mm 0.00 in0.0 mm 0.04 in1.0 mm
03:50 AM 46.9°F8.3°C 46.4°F8.0°C 98% 4.0 mph WSW6.4 kmh WSW 7.4 mph11.9 kmh 29.89 in1012.2 mb 0.00 in0.0 mm 0.00 in0.0 mm 0.04 in1.0 mm
03:55 AM 46.9°F8.3°C 46.4°F8.0°C 98% 3.6 mph WSW5.8 kmh WSW 6.3 mph10.1 kmh 29.89 in1012.2 mb 0.00 in0.0 mm 0.00 in0.0 mm 0.04 in1.0 mm
04:00 AM 46.9°F8.3°C 46.4°F8.0°C 98% 4.3 mph WSW6.9 kmh WSW 7.6 mph12.2 kmh 29.89 in1012.2 mb 0.00 in0.0 mm 0.00 in0.0 mm 0.04 in1.0 mm
04:05 AM 46.9°F8.3°C 46.4°F8.0°C 98% 4.6 mph W7.4 kmh W 6.7 mph10.8 kmh 29.89 in1012.2 mb 0.00 in0.0 mm 0.00 in0.0 mm 0.04 in1.0 mm
04:10 AM 46.9°F8.3°C 46.4°F8.0°C 98% 4.6 mph W7.4 kmh W 7.4 mph11.9 kmh 29.88 in1011.9 mb 0.00 in0.0 mm 0.00 in0.0 mm 0.04 in1.0 mm
04:15 AM 46.9°F8.3°C 46.4°F8.0°C 98% 5.6 mph W9.0 kmh W 9.8 mph15.8 kmh 29.86 in1011.2 mb 0.00 in0.0 mm 0.00 in0.0 mm 0.04 in1.0 mm
04:20 AM 46.9°F8.3°C 46.3°F7.9°C 98% 6.0 mph W9.7 kmh W 8.5 mph13.7 kmh 29.86 in1011.2 mb 0.00 in0.0 mm 0.00 in0.0 mm 0.04 in1.0 mm
04:25 AM 46.8°F8.2°C 46.2°F7.9°C 98% 5.2 mph W8.4 kmh W 7.8 mph12.6 kmh 29.87 in1011.5 mb 0.00 in0.0 mm 0.00 in0.0 mm 0.04 in1.0 mm
04:30 AM 46.8°F8.2°C 46.2°F7.9°C 98% 4.7 mph W7.6 kmh W 6.9 mph11.1 kmh 29.89 in1012.2 mb 0.00 in0.0 mm 0.00 in0.0 mm 0.04 in1.0 mm
04:35 AM 46.8°F8.2°C 46.2°F7.9°C 98% 5.2 mph W8.4 kmh W 8.5 mph13.7 kmh 29.89 in1012.2 mb 0.00 in0.0 mm 0.00 in0.0 mm 0.04 in1.0 mm
04:40 AM 46.8°F8.2°C 46.2°F7.9°C 98% 5.5 mph WNW8.9 kmh WNW 8.3 mph13.4 kmh 29.89 in1012.2 mb 0.00 in0.0 mm 0.00 in0.0 mm 0.04 in1.0 mm
04:45 AM 46.7°F8.2°C 46.1°F7.8°C 98% 4.1 mph WNW6.6 kmh WNW 7.6 mph12.2 kmh 29.89 in1012.2 mb 0.00 in0.0 mm 0.00 in0.0 mm 0.04 in1.0 mm
04:50 AM 46.5°F8.1°C 46.0°F7.8°C 98% 3.9 mph WNW6.3 kmh WNW 5.8 mph9.3 kmh 29.89 in1012.2 mb 0.00 in0.0 mm 0.00 in0.0 mm 0.04 in1.0 mm
04:55 AM 46.4°F8.0°C 45.7°F7.6°C 98% 3.7 mph W6.0 kmh W 5.4 mph8.7 kmh 29.89 in1012.2 mb 0.00 in0.0 mm 0.00 in0.0 mm 0.04 in1.0 mm
05:00 AM 46.4°F8.0°C 45.6°F7.6°C 97% 4.3 mph W6.9 kmh W 7.6 mph12.2 kmh 29.89 in1012.2 mb 0.00 in0.0 mm 0.00 in0.0 mm 0.04 in1.0 mm
05:05 AM 46.4°F8.0°C 45.6°F7.6°C 97% 4.6 mph W7.4 kmh W 5.8 mph9.3 kmh 29.89 in1012.2 mb 0.00 in0.0 mm 0.00 in0.0 mm 0.04 in1.0 mm
05:10 AM 46.2°F7.9°C 45.3°F7.4°C 96% 5.0 mph W8.0 kmh W 9.8 mph15.8 kmh 29.89 in1012.2 mb 0.00 in0.0 mm 0.00 in0.0 mm 0.04 in1.0 mm
05:15 AM 46.2°F7.9°C 45.1°F7.3°C 96% 4.9 mph W7.9 kmh W 8.5 mph13.7 kmh 29.89 in1012.2 mb 0.00 in0.0 mm 0.00 in0.0 mm 0.04 in1.0 mm
05:20 AM 46.2°F7.9°C 44.9°F7.2°C 95% 5.0 mph W8.0 kmh W 8.7 mph14.0 kmh 29.89 in1012.2 mb 0.00 in0.0 mm 0.00 in0.0 mm 0.04 in1.0 mm
05:25 AM 46.2°F7.9°C 44.9°F7.2°C 95% 6.2 mph W10.0 kmh W 8.9 mph14.3 kmh 29.89 in1012.2 mb 0.00 in0.0 mm 0.00 in0.0 mm 0.04 in1.0 mm
05:30 AM 46.2°F7.9°C 44.6°F7.0°C 94% 6.3 mph WNW10.1 kmh WNW 9.4 mph15.1 kmh 29.89 in1012.2 mb 0.00 in0.0 mm 0.00 in0.0 mm 0.04 in1.0 mm
05:35 AM 46.2°F7.9°C 44.4°F6.9°C 93% 7.3 mph W11.7 kmh W 10.5 mph16.9 kmh 29.89 in1012.2 mb 0.00 in0.0 mm 0.00 in0.0 mm 0.04 in1.0 mm
05:40 AM 46.3°F7.9°C 43.9°F6.6°C 91% 6.9 mph W11.1 kmh W 9.8 mph15.8 kmh 29.89 in1012.2 mb 0.00 in0.0 mm 0.00 in0.0 mm 0.04 in1.0 mm
05:45 AM 46.3°F7.9°C 43.8°F6.6°C 91% 5.0 mph W8.0 kmh W 8.3 mph13.4 kmh 29.89 in1012.2 mb 0.00 in0.0 mm 0.00 in0.0 mm 0.04 in1.0 mm
05:50 AM 46.2°F7.9°C 43.7°F6.5°C 91% 5.8 mph W9.3 kmh W 8.3 mph13.4 kmh 29.89 in1012.2 mb 0.00 in0.0 mm 0.00 in0.0 mm 0.04 in1.0 mm
05:55 AM 46.2°F7.9°C 43.9°F6.6°C 92% 5.2 mph WNW8.4 kmh WNW 8.9 mph14.3 kmh 29.89 in1012.2 mb 0.00 in0.0 mm 0.00 in0.0 mm 0.04 in1.0 mm
06:00 AM 46.2°F7.9°C 44.0°F6.7°C 92% 7.7 mph W12.4 kmh W 12.5 mph20.1 kmh 29.89 in1012.2 mb 0.00 in0.0 mm 0.00 in0.0 mm 0.04 in1.0 mm
06:05 AM 46.2°F7.9°C 43.9°F6.6°C 92% 7.6 mph W12.2 kmh W 13.0 mph20.9 kmh 29.89 in1012.2 mb 0.00 in0.0 mm 0.00 in0.0 mm 0.04 in1.0 mm
06:10 AM 46.3°F7.9°C 43.8°F6.6°C 91% 7.0 mph WNW11.3 kmh WNW 8.9 mph14.3 kmh 29.89 in1012.2 mb 0.00 in0.0 mm 0.00 in0.0 mm 0.04 in1.0 mm
06:15 AM 46.2°F7.9°C 43.7°F6.5°C 91% 6.9 mph WNW11.1 kmh WNW 9.2 mph14.8 kmh 29.89 in1012.2 mb 0.00 in0.0 mm 0.00 in0.0 mm 0.04 in1.0 mm
06:20 AM 46.2°F7.9°C 43.7°F6.5°C 91% 5.5 mph WNW8.9 kmh WNW 8.1 mph13.0 kmh 29.89 in1012.2 mb 0.00 in0.0 mm 0.00 in0.0 mm 0.04 in1.0 mm
06:25 AM 46.2°F7.9°C 43.7°F6.5°C 91% 4.6 mph W7.4 kmh W 7.4 mph11.9 kmh 29.89 in1012.2 mb 0.00 in0.0 mm 0.00 in0.0 mm 0.04 in1.0 mm
06:30 AM 46.1°F7.8°C 43.6°F6.4°C 91% 4.5 mph WNW7.2 kmh WNW 8.7 mph14.0 kmh 29.89 in1012.2 mb 0.00 in0.0 mm 0.00 in0.0 mm 0.04 in1.0 mm
06:35 AM 46.0°F7.8°C 43.6°F6.4°C 91% 4.9 mph W7.9 kmh W 8.1 mph13.0 kmh 29.89 in1012.2 mb 0.00 in0.0 mm 0.00 in0.0 mm 0.04 in1.0 mm
06:40 AM 46.0°F7.8°C 43.6°F6.4°C 91% 4.0 mph WSW6.4 kmh WSW 6.7 mph10.8 kmh 29.89 in1012.2 mb 0.00 in0.0 mm 0.00 in0.0 mm 0.04 in1.0 mm
06:45 AM 46.0°F7.8°C 43.4°F6.3°C 91% 3.6 mph SW5.8 kmh SW 6.3 mph10.1 kmh 29.89 in1012.2 mb 0.00 in0.0 mm 0.00 in0.0 mm 0.04 in1.0 mm
06:50 AM 46.1°F7.8°C 43.2°F6.2°C 90% 4.6 mph WSW7.4 kmh WSW 6.3 mph10.1 kmh 29.89 in1012.2 mb 0.00 in0.0 mm 0.00 in0.0 mm 0.04 in1.0 mm
06:55 AM 46.2°F7.9°C 43.2°F6.2°C 89% 4.2 mph WSW6.8 kmh WSW 6.3 mph10.1 kmh 29.89 in1012.2 mb 0.00 in0.0 mm 0.00 in0.0 mm 0.04 in1.0 mm
07:00 AM 46.1°F7.8°C 43.1°F6.2°C 89% 3.8 mph WSW6.1 kmh WSW 5.6 mph9.0 kmh 29.89 in1012.2 mb 0.00 in0.0 mm 0.00 in0.0 mm 0.04 in1.0 mm
07:05 AM 46.0°F7.8°C 43.0°F6.1°C 89% 3.2 mph WSW5.1 kmh WSW 4.5 mph7.2 kmh 29.89 in1012.2 mb 0.00 in0.0 mm 0.00 in0.0 mm 0.04 in1.0 mm
07:10 AM 46.0°F7.8°C 42.9°F6.1°C 89% 3.4 mph WSW5.5 kmh WSW 5.1 mph8.2 kmh 29.89 in1012.2 mb 0.00 in0.0 mm 0.00 in0.0 mm 0.04 in1.0 mm
07:15 AM 46.0°F7.8°C 42.9°F6.1°C 89% 2.3 mph WSW3.7 kmh WSW 3.4 mph5.5 kmh 29.89 in1012.2 mb 0.00 in0.0 mm 0.00 in0.0 mm 0.04 in1.0 mm
07:20 AM 45.9°F7.7°C 42.8°F6.0°C 89% 3.1 mph WSW5.0 kmh WSW 4.0 mph6.4 kmh 29.89 in1012.2 mb 0.00 in0.0 mm 0.00 in0.0 mm 0.04 in1.0 mm
07:25 AM 45.9°F7.7°C 42.8°F6.0°C 89% 2.7 mph WSW4.3 kmh WSW 4.5 mph7.2 kmh 29.89 in1012.2 mb 0.00 in0.0 mm 0.00 in0.0 mm 0.04 in1.0 mm
07:30 AM 45.8°F7.7°C 42.8°F6.0°C 89% 3.2 mph WSW5.1 kmh WSW 5.6 mph9.0 kmh 29.86 in1011.2 mb 0.00 in0.0 mm 0.00 in0.0 mm 0.04 in1.0 mm
07:35 AM 45.7°F7.6°C 42.6°F5.9°C 89% 4.3 mph W6.9 kmh W 5.6 mph9.0 kmh 29.86 in1011.2 mb 0.00 in0.0 mm 0.00 in0.0 mm 0.04 in1.0 mm
07:40 AM 45.7°F7.6°C 42.6°F5.9°C 89% 3.5 mph W5.6 kmh W 5.1 mph8.2 kmh 29.87 in1011.5 mb 0.00 in0.0 mm 0.00 in0.0 mm 0.04 in1.0 mm
07:45 AM 45.7°F7.6°C 42.6°F5.9°C 89% 3.6 mph W5.8 kmh W 4.5 mph7.2 kmh 29.89 in1012.2 mb 0.00 in0.0 mm 0.00 in0.0 mm 0.04 in1.0 mm
07:50 AM 45.5°F7.5°C 42.5°F5.8°C 89% 3.9 mph W6.3 kmh W 6.5 mph10.5 kmh 29.89 in1012.2 mb 0.00 in0.0 mm 0.00 in0.0 mm 0.04 in1.0 mm
07:55 AM 45.6°F7.6°C 42.6°F5.9°C 89% 4.8 mph WSW7.7 kmh WSW 6.7 mph10.8 kmh 29.88 in1011.9 mb 0.00 in0.0 mm 0.00 in0.0 mm 0.04 in1.0 mm
08:00 AM 45.9°F7.7°C 42.8°F6.0°C 89% 4.7 mph W7.6 kmh W 9.8 mph15.8 kmh 29.86 in1011.2 mb 0.00 in0.0 mm 0.00 in0.0 mm 0.04 in1.0 mm
08:05 AM 45.9°F7.7°C 42.8°F6.0°C 89% 7.2 mph WSW11.6 kmh WSW 10.1 mph16.3 kmh 29.86 in1011.2 mb 0.00 in0.0 mm 0.00 in0.0 mm 0.04 in1.0 mm
08:10 AM 46.1°F7.8°C 42.8°F6.0°C 88% 8.5 mph WSW13.7 kmh WSW 16.8 mph27.0 kmh 29.86 in1011.2 mb 0.00 in0.0 mm 0.00 in0.0 mm 0.04 in1.0 mm
08:15 AM 46.2°F7.9°C 42.6°F5.9°C 87% 10.1 mph W16.3 kmh W 15.4 mph24.8 kmh 29.86 in1011.2 mb 0.00 in0.0 mm 0.00 in0.0 mm 0.04 in1.0 mm
08:20 AM 46.1°F7.8°C 42.7°F5.9°C 88% 8.0 mph W12.9 kmh W 14.8 mph23.8 kmh 29.86 in1011.2 mb 0.00 in0.0 mm 0.00 in0.0 mm 0.04 in1.0 mm
08:25 AM 45.9°F7.7°C 42.6°F5.9°C 88% 6.2 mph W10.0 kmh W 10.7 mph17.2 kmh 29.86 in1011.2 mb 0.00 in0.0 mm 0.00 in0.0 mm 0.04 in1.0 mm
08:30 AM 45.8°F7.7°C 42.7°F5.9°C 89% 6.0 mph W9.7 kmh W 7.8 mph12.6 kmh 29.86 in1011.2 mb 0.00 in0.0 mm 0.00 in0.0 mm 0.04 in1.0 mm
08:35 AM 45.7°F7.6°C 42.6°F5.9°C 89% 6.2 mph W10.0 kmh W 10.7 mph17.2 kmh 29.86 in1011.2 mb 0.00 in0.0 mm 0.00 in0.0 mm 0.04 in1.0 mm
08:40 AM 45.6°F7.6°C 42.2°F5.7°C 88% 5.8 mph WSW9.3 kmh WSW 8.5 mph13.7 kmh 29.86 in1011.2 mb 0.00 in0.0 mm 0.00 in0.0 mm 0.04 in1.0 mm
08:45 AM 45.5°F7.5°C 42.2°F5.7°C 88% 6.0 mph WSW9.7 kmh WSW 11.2 mph18.0 kmh 29.86 in1011.2 mb 0.00 in0.0 mm 0.00 in0.0 mm 0.04 in1.0 mm
08:50 AM 45.5°F7.5°C 42.2°F5.7°C 88% 5.3 mph W8.5 kmh W 7.8 mph12.6 kmh 29.86 in1011.2 mb 0.00 in0.0 mm 0.00 in0.0 mm 0.04 in1.0 mm
08:55 AM 45.6°F7.6°C 42.5°F5.8°C 89% 5.4 mph WSW8.7 kmh WSW 8.7 mph14.0 kmh 29.86 in1011.2 mb 0.00 in0.0 mm 0.00 in0.0 mm 0.04 in1.0 mm
09:00 AM 46.1°F7.8°C 43.0°F6.1°C 89% 6.2 mph W10.0 kmh W 11.4 mph18.3 kmh 29.86 in1011.2 mb 0.00 in0.0 mm 0.00 in0.0 mm 0.04 in1.0 mm
09:05 AM 47.2°F8.4°C 44.1°F6.7°C 89% 5.3 mph W8.5 kmh W 7.4 mph11.9 kmh 29.86 in1011.2 mb 0.00 in0.0 mm 0.00 in0.0 mm 0.04 in1.0 mm
09:10 AM 47.8°F8.8°C 44.2°F6.8°C 88% 4.7 mph WSW7.6 kmh WSW 8.1 mph13.0 kmh 29.86 in1011.2 mb 0.00 in0.0 mm 0.00 in0.0 mm 0.04 in1.0 mm
09:15 AM 47.8°F8.8°C 43.6°F6.4°C 85% 6.8 mph WSW10.9 kmh WSW 10.7 mph17.2 kmh 29.86 in1011.2 mb 0.00 in0.0 mm 0.00 in0.0 mm 0.04 in1.0 mm
09:20 AM 47.7°F8.7°C 43.7°F6.5°C 86% 4.4 mph WSW7.1 kmh WSW 8.3 mph13.4 kmh 29.86 in1011.2 mb 0.00 in0.0 mm 0.00 in0.0 mm 0.04 in1.0 mm
09:25 AM 47.7°F8.7°C 43.7°F6.5°C 86% 4.4 mph WSW7.1 kmh WSW 7.4 mph11.9 kmh 29.86 in1011.2 mb 0.00 in0.0 mm 0.00 in0.0 mm 0.04 in1.0 mm
09:30 AM 47.8°F8.8°C 44.0°F6.7°C 87% 6.1 mph WSW9.8 kmh WSW 8.9 mph14.3 kmh 29.86 in1011.2 mb 0.00 in0.0 mm 0.00 in0.0 mm 0.04 in1.0 mm
09:35 AM 47.7°F8.7°C 43.9°F6.6°C 87% 7.0 mph W11.3 kmh W 11.2 mph18.0 kmh 29.86 in1011.2 mb 0.00 in0.0 mm 0.00 in0.0 mm 0.04 in1.0 mm
09:40 AM 47.5°F8.6°C 43.8°F6.6°C 87% 7.1 mph W11.4 kmh W 11.4 mph18.3 kmh 29.87 in1011.5 mb 0.00 in0.0 mm 0.00 in0.0 mm 0.04 in1.0 mm
09:45 AM 47.4°F8.6°C 43.7°F6.5°C 87% 7.2 mph WNW11.6 kmh WNW 11.2 mph18.0 kmh 29.89 in1012.2 mb 0.00 in0.0 mm 0.00 in0.0 mm 0.04 in1.0 mm
09:50 AM 48.3°F9.1°C 44.3°F6.8°C 86% 6.7 mph W10.8 kmh W 9.4 mph15.1 kmh 29.89 in1012.2 mb 0.00 in0.0 mm 0.00 in0.0 mm 0.04 in1.0 mm
09:55 AM 48.5°F9.2°C 43.6°F6.4°C 83% 5.5 mph W8.9 kmh W 7.6 mph12.2 kmh 29.88 in1011.9 mb 0.00 in0.0 mm 0.00 in0.0 mm 0.04 in1.0 mm
10:00 AM 48.3°F9.1°C 43.4°F6.3°C 83% 5.8 mph W9.3 kmh W 8.3 mph13.4 kmh 29.86 in1011.2 mb 0.00 in0.0 mm 0.00 in0.0 mm 0.04 in1.0 mm
10:05 AM 48.1°F8.9°C 43.2°F6.2°C 83% 6.3 mph W10.1 kmh W 8.9 mph14.3 kmh 29.86 in1011.2 mb 0.00 in0.0 mm 0.00 in0.0 mm 0.04 in1.0 mm
10:10 AM 48.6°F9.2°C 43.6°F6.4°C 83% 5.8 mph W9.3 kmh W 8.7 mph14.0 kmh 29.86 in1011.2 mb 0.00 in0.0 mm 0.00 in0.0 mm 0.04 in1.0 mm
10:15 AM 49.7°F9.8°C 44.6°F7.0°C 83% 5.0 mph WSW8.0 kmh WSW 7.4 mph11.9 kmh 29.86 in1011.2 mb 0.00 in0.0 mm 0.00 in0.0 mm 0.04 in1.0 mm
10:20 AM 50.8°F10.4°C 44.6°F7.0°C 79% 6.6 mph WSW10.6 kmh WSW 11.0 mph17.7 kmh 29.86 in1011.2 mb 0.00 in0.0 mm 0.00 in0.0 mm 0.04 in1.0 mm
10:25 AM 51.3°F10.7°C 44.7°F7.1°C 78% 6.7 mph W10.8 kmh W 11.2 mph18.0 kmh 29.85 in1010.8 mb 0.00 in0.0 mm 0.00 in0.0 mm 0.04 in1.0 mm
10:30 AM 51.8°F11.0°C 45.0°F7.2°C 78% 8.0 mph W12.9 kmh W 13.0 mph20.9 kmh 29.83 in1010.2 mb 0.00 in0.0 mm 0.00 in0.0 mm 0.04 in1.0 mm
10:35 AM 52.2°F11.2°C 45.2°F7.3°C 77% 8.5 mph W13.7 kmh W 12.8 mph20.6 kmh 29.83 in1010.2 mb 0.00 in0.0 mm 0.00 in0.0 mm 0.04 in1.0 mm
10:40 AM 52.5°F11.4°C 44.9°F7.2°C 75% 7.4 mph W11.9 kmh W 10.7 mph17.2 kmh 29.84 in1010.5 mb 0.00 in0.0 mm 0.00 in0.0 mm 0.04 in1.0 mm
10:45 AM 52.5°F11.4°C 44.6°F7.0°C 74% 9.1 mph W14.6 kmh W 13.6 mph21.9 kmh 29.86 in1011.2 mb 0.00 in0.0 mm 0.00 in0.0 mm 0.04 in1.0 mm
10:50 AM 51.6°F10.9°C 44.1°F6.7°C 75% 7.9 mph W12.7 kmh W 12.8 mph20.6 kmh 29.86 in1011.2 mb 0.00 in0.0 mm 0.00 in0.0 mm 0.04 in1.0 mm
10:55 AM 50.7°F10.4°C 43.2°F6.2°C 75% 10.3 mph W16.6 kmh W 16.6 mph26.7 kmh 29.85 in1010.8 mb 0.00 in0.0 mm 0.00 in0.0 mm 0.04 in1.0 mm
11:00 AM 50.1°F10.1°C 42.8°F6.0°C 76% 9.2 mph W14.8 kmh W 15.7 mph25.3 kmh 29.83 in1010.2 mb 0.00 in0.0 mm 0.00 in0.0 mm 0.04 in1.0 mm
11:05 AM 50.2°F10.1°C 42.9°F6.1°C 76% 10.6 mph W17.1 kmh W 14.8 mph23.8 kmh 29.83 in1010.2 mb 0.00 in0.0 mm 0.00 in0.0 mm 0.04 in1.0 mm
11:10 AM 51.2°F10.7°C 43.8°F6.6°C 76% 11.0 mph WNW17.7 kmh WNW 18.6 mph29.9 kmh 29.83 in1010.2 mb 0.00 in0.0 mm 0.00 in0.0 mm 0.04 in1.0 mm
11:15 AM 52.1°F11.2°C 43.3°F6.3°C 72% 11.9 mph W19.2 kmh W 16.6 mph26.7 kmh 29.83 in1010.2 mb 0.00 in0.0 mm 0.00 in0.0 mm 0.04 in1.0 mm
11:20 AM 52.5°F11.4°C 43.7°F6.5°C 72% 11.9 mph W19.2 kmh W 17.9 mph28.8 kmh 29.83 in1010.2 mb 0.00 in0.0 mm 0.00 in0.0 mm 0.04 in1.0 mm
11:25 AM 52.8°F11.6°C 44.0°F6.7°C 72% 11.3 mph W18.2 kmh W 15.9 mph25.6 kmh 29.83 in1010.2 mb 0.00 in0.0 mm 0.00 in0.0 mm 0.04 in1.0 mm
11:30 AM 52.9°F11.6°C 43.7°F6.5°C 71% 9.0 mph W14.5 kmh W 12.5 mph20.1 kmh 29.83 in1010.2 mb 0.00 in0.0 mm 0.00 in0.0 mm 0.04 in1.0 mm
11:35 AM 52.8°F11.6°C 42.6°F5.9°C 68% 11.4 mph W18.3 kmh W 16.3 mph26.2 kmh 29.83 in1010.2 mb 0.00 in0.0 mm 0.00 in0.0 mm 0.04 in1.0 mm
11:40 AM 52.8°F11.6°C 43.0°F6.1°C 69% 9.9 mph W15.9 kmh W 13.0 mph20.9 kmh 29.83 in1010.2 mb 0.00 in0.0 mm 0.00 in0.0 mm 0.04 in1.0 mm
11:45 AM 51.9°F11.1°C 42.0°F5.6°C 69% 11.9 mph W19.2 kmh W 16.3 mph26.2 kmh 29.83 in1010.2 mb 0.00 in0.0 mm 0.00 in0.0 mm 0.04 in1.0 mm
11:50 AM 51.3°F10.7°C 41.8°F5.4°C 70% 9.4 mph W15.1 kmh W 14.1 mph22.7 kmh 29.83 in1010.2 mb 0.00 in0.0 mm 0.00 in0.0 mm 0.04 in1.0 mm
11:55 AM 51.7°F10.9°C 41.7°F5.4°C 69% 10.4 mph W16.7 kmh W 14.8 mph23.8 kmh 29.83 in1010.2 mb 0.00 in0.0 mm 0.00 in0.0 mm 0.04 in1.0 mm
12:00 PM 51.5°F10.8°C 41.4°F5.2°C 68% 11.2 mph W18.0 kmh W 18.1 mph29.1 kmh 29.83 in1010.2 mb 0.00 in0.0 mm 0.00 in0.0 mm 0.04 in1.0 mm
12:02 PM 51.8°F11.0°C 41.6°F5.3°C 68% 11.2 mph WNW18.0 kmh WNW 12.8 mph20.6 kmh 29.86 in1011.2 mb 0.00 in0.0 mm 0.00 in0.0 mm 0.04 in1.0 mm
12:10 PM 52.8°F11.6°C 41.5°F5.3°C 65% 11.3 mph W18.2 kmh W 17.2 mph27.7 kmh 29.83 in1010.2 mb 0.00 in0.0 mm 0.00 in0.0 mm 0.04 in1.0 mm
12:15 PM 53.3°F11.8°C 42.3°F5.7°C 66% 11.0 mph W17.7 kmh W 16.8 mph27.0 kmh 29.83 in1010.2 mb 0.00 in0.0 mm 0.00 in0.0 mm 0.04 in1.0 mm
12:20 PM 53.6°F12.0°C 42.4°F5.8°C 66% 10.8 mph W17.4 kmh W 16.8 mph27.0 kmh 29.83 in1010.2 mb 0.00 in0.0 mm 0.00 in0.0 mm 0.04 in1.0 mm
12:25 PM 53.6°F12.0°C 41.8°F5.4°C 64% 10.7 mph W17.2 kmh W 15.7 mph25.3 kmh 29.82 in1009.8 mb 0.00 in0.0 mm 0.00 in0.0 mm 0.04 in1.0 mm
12:30 PM 54.0°F12.2°C 42.3°F5.7°C 64% 12.5 mph W20.1 kmh W 19.9 mph32.0 kmh 29.80 in1009.1 mb 0.00 in0.0 mm 0.00 in0.0 mm 0.04 in1.0 mm
12:35 PM 52.7°F11.5°C 41.4°F5.2°C 65% 12.2 mph W19.6 kmh W 18.8 mph30.3 kmh 29.80 in1009.1 mb 0.00 in0.0 mm 0.00 in0.0 mm 0.04 in1.0 mm
12:40 PM 51.8°F11.0°C 41.3°F5.2°C 67% 12.1 mph WNW19.5 kmh WNW 19.0 mph30.6 kmh 29.81 in1009.5 mb 0.00 in0.0 mm 0.00 in0.0 mm 0.04 in1.0 mm
12:45 PM 50.4°F10.2°C 40.5°F4.7°C 69% 13.0 mph W20.9 kmh W 19.2 mph30.9 kmh 29.83 in1010.2 mb 0.00 in0.0 mm 0.00 in0.0 mm 0.04 in1.0 mm
12:50 PM 49.3°F9.6°C 40.0°F4.4°C 70% 12.3 mph W19.8 kmh W 18.1 mph29.1 kmh 29.83 in1010.2 mb 0.00 in0.0 mm 0.00 in0.0 mm 0.04 in1.0 mm
12:55 PM 49.2°F9.6°C 40.1°F4.5°C 71% 11.6 mph W18.7 kmh W 17.2 mph27.7 kmh 29.84 in1010.5 mb 0.00 in0.0 mm 0.00 in0.0 mm 0.04 in1.0 mm
01:00 PM 50.0°F10.0°C 41.2°F5.1°C 72% 10.4 mph W16.7 kmh W 14.8 mph23.8 kmh 29.86 in1011.2 mb 0.00 in0.0 mm 0.00 in0.0 mm 0.04 in1.0 mm
01:05 PM 51.2°F10.7°C 41.6°F5.3°C 70% 10.5 mph W16.9 kmh W 15.4 mph24.8 kmh 29.86 in1011.2 mb 0.00 in0.0 mm 0.00 in0.0 mm 0.04 in1.0 mm
01:10 PM 52.0°F11.1°C 42.5°F5.8°C 70% 9.7 mph W15.6 kmh W 15.4 mph24.8 kmh 29.85 in1010.8 mb 0.00 in0.0 mm 0.00 in0.0 mm 0.04 in1.0 mm
01:15 PM 52.4°F11.3°C 43.5°F6.4°C 72% 8.9 mph W14.3 kmh W 12.5 mph20.1 kmh 29.83 in1010.2 mb 0.00 in0.0 mm 0.00 in0.0 mm 0.04 in1.0 mm
01:20 PM 52.1°F11.2°C 42.8°F6.0°C 70% 9.6 mph WSW15.4 kmh WSW 13.0 mph20.9 kmh 29.83 in1010.2 mb 0.00 in0.0 mm 0.00 in0.0 mm 0.04 in1.0 mm
01:25 PM 51.3°F10.7°C 42.5°F5.8°C 72% 10.6 mph WSW17.1 kmh WSW 15.0 mph24.1 kmh 29.83 in1010.2 mb 0.00 in0.0 mm 0.00 in0.0 mm 0.04 in1.0 mm
01:30 PM 51.0°F10.6°C 42.3°F5.7°C 72% 10.7 mph WSW17.2 kmh WSW 13.9 mph22.4 kmh 29.83 in1010.2 mb 0.00 in0.0 mm 0.00 in0.0 mm 0.04 in1.0 mm
01:35 PM 50.7°F10.4°C 42.6°F5.9°C 74% 9.4 mph W15.1 kmh W 13.6 mph21.9 kmh 29.83 in1010.2 mb 0.00 in0.0 mm 0.00 in0.0 mm 0.04 in1.0 mm
01:40 PM 50.8°F10.4°C 42.5°F5.8°C 73% 9.2 mph WSW14.8 kmh WSW 15.9 mph25.6 kmh 29.83 in1010.2 mb 0.00 in0.0 mm 0.00 in0.0 mm 0.04 in1.0 mm
01:45 PM 50.9°F10.5°C 42.6°F5.9°C 73% 12.3 mph W19.8 kmh W 19.0 mph30.6 kmh 29.83 in1010.2 mb 0.00 in0.0 mm 0.00 in0.0 mm 0.04 in1.0 mm
01:50 PM 51.1°F10.6°C 43.3°F6.3°C 74% 8.5 mph W13.7 kmh W 13.4 mph21.6 kmh 29.83 in1010.2 mb 0.00 in0.0 mm 0.00 in0.0 mm 0.04 in1.0 mm
01:55 PM 51.7°F10.9°C 42.2°F5.7°C 70% 11.7 mph WSW18.8 kmh WSW 20.8 mph33.5 kmh 29.82 in1009.8 mb 0.00 in0.0 mm 0.00 in0.0 mm 0.04 in1.0 mm
02:00 PM 51.4°F10.8°C 39.8°F4.3°C 65% 13.6 mph WSW21.9 kmh WSW 19.9 mph32.0 kmh 29.80 in1009.1 mb 0.00 in0.0 mm 0.00 in0.0 mm 0.04 in1.0 mm
02:05 PM 51.3°F10.7°C 40.2°F4.6°C 66% 12.8 mph W20.6 kmh W 22.4 mph36.0 kmh 29.80 in1009.1 mb 0.00 in0.0 mm 0.00 in0.0 mm 0.04 in1.0 mm
02:10 PM 51.6°F10.9°C 40.5°F4.7°C 66% 10.0 mph W16.1 kmh W 17.9 mph28.8 kmh 29.79 in1008.8 mb 0.00 in0.0 mm 0.00 in0.0 mm 0.04 in1.0 mm
02:15 PM 52.8°F11.6°C 40.8°F4.9°C 64% 12.0 mph WSW19.3 kmh WSW 15.9 mph25.6 kmh 29.77 in1008.1 mb 0.00 in0.0 mm 0.00 in0.0 mm 0.04 in1.0 mm
02:20 PM 53.6°F12.0°C 41.5°F5.3°C 64% 12.8 mph WSW20.6 kmh WSW 20.1 mph32.3 kmh 29.77 in1008.1 mb 0.00 in0.0 mm 0.00 in0.0 mm 0.04 in1.0 mm
02:25 PM 53.8°F12.1°C 42.3°F5.7°C 65% 13.2 mph W21.2 kmh W 18.6 mph29.9 kmh 29.77 in1008.1 mb 0.00 in0.0 mm 0.00 in0.0 mm 0.04 in1.0 mm
02:30 PM 53.7°F12.1°C 42.2°F5.7°C 65% 14.8 mph WSW23.8 kmh WSW 23.0 mph37.0 kmh 29.77 in1008.1 mb 0.00 in0.0 mm 0.00 in0.0 mm 0.04 in1.0 mm
02:35 PM 54.1°F12.3°C 43.6°F6.4°C 67% 12.4 mph W20.0 kmh W 19.9 mph32.0 kmh 29.77 in1008.1 mb 0.00 in0.0 mm 0.00 in0.0 mm 0.04 in1.0 mm
02:40 PM 54.3°F12.4°C 43.1°F6.2°C 66% 13.7 mph WSW22.0 kmh WSW 19.7 mph31.7 kmh 29.77 in1008.1 mb 0.00 in0.0 mm 0.00 in0.0 mm 0.04 in1.0 mm
02:45 PM 54.4°F12.4°C 41.9°F5.5°C 63% 15.2 mph WSW24.5 kmh WSW 23.5 mph37.8 kmh 29.77 in1008.1 mb 0.00 in0.0 mm 0.00 in0.0 mm 0.04 in1.0 mm
02:50 PM 53.5°F11.9°C 40.8°F4.9°C 62% 15.3 mph W24.6 kmh W 23.3 mph37.5 kmh 29.77 in1008.1 mb 0.00 in0.0 mm 0.00 in0.0 mm 0.04 in1.0 mm
02:55 PM 52.5°F11.4°C 41.4°F5.2°C 66% 13.6 mph W21.9 kmh W 22.4 mph36.0 kmh 29.77 in1008.1 mb 0.00 in0.0 mm 0.00 in0.0 mm 0.04 in1.0 mm
03:00 PM 50.1°F10.1°C 40.5°F4.7°C 70% 20.7 mph WNW33.3 kmh WNW 30.6 mph49.2 kmh 29.77 in1008.1 mb 0.00 in0.0 mm 0.00 in0.0 mm 0.04 in1.0 mm
03:05 PM 48.0°F8.9°C 40.6°F4.8°C 76% 20.0 mph WNW32.2 kmh WNW 24.6 mph39.6 kmh 29.77 in1008.1 mb 0.00 in0.0 mm 0.00 in0.0 mm 0.04 in1.0 mm
03:10 PM 46.8°F8.2°C 41.1°F5.1°C 80% 15.2 mph W24.5 kmh W 22.6 mph36.4 kmh 29.78 in1008.5 mb 0.00 in0.0 mm 0.00 in0.0 mm 0.04 in1.0 mm
03:15 PM 47.1°F8.4°C 41.9°F5.5°C 82% 12.1 mph W19.5 kmh W 14.3 mph23.0 kmh 29.80 in1009.1 mb 0.00 in0.0 mm 0.00 in0.0 mm 0.04 in1.0 mm
03:20 PM 48.3°F9.1°C 42.4°F5.8°C 80% 10.2 mph WNW16.4 kmh WNW 17.9 mph28.8 kmh 29.80 in1009.1 mb 0.00 in0.0 mm 0.00 in0.0 mm 0.04 in1.0 mm
03:25 PM 48.8°F9.3°C 41.3°F5.2°C 75% 12.4 mph W20.0 kmh W 17.7 mph28.5 kmh 29.79 in1008.8 mb 0.00 in0.0 mm 0.00 in0.0 mm 0.04 in1.0 mm
03:30 PM 48.9°F9.4°C 40.8°F4.9°C 74% 11.6 mph W18.7 kmh W 16.1 mph25.9 kmh 29.77 in1008.1 mb 0.00 in0.0 mm 0.00 in0.0 mm 0.04 in1.0 mm
03:35 PM 49.1°F9.5°C 40.7°F4.8°C 73% 12.3 mph W19.8 kmh W 17.7 mph28.5 kmh 29.77 in1008.1 mb 0.00 in0.0 mm 0.00 in0.0 mm 0.04 in1.0 mm
03:40 PM 49.2°F9.6°C 41.1°F5.1°C 74% 11.5 mph W18.5 kmh W 15.0 mph24.1 kmh 29.77 in1008.1 mb 0.00 in0.0 mm 0.00 in0.0 mm 0.04 in1.0 mm
03:45 PM 49.5°F9.7°C 41.7°F5.4°C 74% 10.9 mph WNW17.5 kmh WNW 16.6 mph26.7 kmh 29.77 in1008.1 mb 0.00 in0.0 mm 0.00 in0.0 mm 0.04 in1.0 mm
03:50 PM 49.8°F9.9°C 41.8°F5.4°C 74% 13.6 mph W21.9 kmh W 19.2 mph30.9 kmh 29.77 in1008.1 mb 0.00 in0.0 mm 0.00 in0.0 mm 0.04 in1.0 mm
03:55 PM 50.1°F10.1°C 42.1°F5.6°C 74% 11.1 mph W17.9 kmh W 17.4 mph28.0 kmh 29.77 in1008.1 mb 0.00 in0.0 mm 0.00 in0.0 mm 0.04 in1.0 mm
04:00 PM 50.2°F10.1°C 42.1°F5.6°C 74% 11.4 mph W18.3 kmh W 14.3 mph23.0 kmh 29.77 in1008.1 mb 0.00 in0.0 mm 0.00 in0.0 mm 0.04 in1.0 mm
04:05 PM 49.5°F9.7°C 41.5°F5.3°C 74% 11.4 mph W18.3 kmh W 15.4 mph24.8 kmh 29.77 in1008.1 mb 0.00 in0.0 mm 0.00 in0.0 mm 0.04 in1.0 mm
04:10 PM 49.0°F9.4°C 40.4°F4.7°C 72% 13.9 mph W22.4 kmh W 20.4 mph32.8 kmh 29.77 in1008.1 mb 0.00 in0.0 mm 0.00 in0.0 mm 0.04 in1.0 mm
04:15 PM 48.9°F9.4°C 40.0°F4.4°C 71% 15.1 mph WNW24.3 kmh WNW 17.9 mph28.8 kmh 29.77 in1008.1 mb 0.00 in0.0 mm 0.00 in0.0 mm 0.04 in1.0 mm
04:20 PM 48.5°F9.2°C 40.1°F4.5°C 72% 18.3 mph WNW29.5 kmh WNW 25.7 mph41.4 kmh 29.77 in1008.1 mb 0.05 in1.3 mm 0.60 in15.2 mm 0.09 in2.3 mm
04:25 PM 47.9°F8.8°C 40.6°F4.8°C 76% 19.8 mph WNW31.9 kmh WNW 29.1 mph46.8 kmh 29.77 in1008.1 mb 0.05 in1.3 mm 0.00 in0.0 mm 0.09 in2.3 mm
04:30 PM 46.8°F8.2°C 40.6°F4.8°C 79% 17.4 mph WNW28.0 kmh WNW 24.2 mph38.9 kmh 29.77 in1008.1 mb 0.05 in1.3 mm 0.00 in0.0 mm 0.09 in2.3 mm
04:35 PM 46.4°F8.0°C 40.8°F4.9°C 81% 13.7 mph WNW22.0 kmh WNW 17.7 mph28.5 kmh 29.77 in1008.1 mb 0.05 in1.3 mm 0.00 in0.0 mm 0.09 in2.3 mm
04:40 PM 46.9°F8.3°C 41.2°F5.1°C 80% 11.6 mph WNW18.7 kmh WNW 17.9 mph28.8 kmh 29.76 in1007.8 mb 0.05 in1.3 mm 0.00 in0.0 mm 0.09 in2.3 mm
04:45 PM 47.0°F8.3°C 40.5°F4.7°C 78% 12.7 mph WNW20.4 kmh WNW 17.4 mph28.0 kmh 29.74 in1007.1 mb 0.05 in1.3 mm 0.00 in0.0 mm 0.09 in2.3 mm
04:50 PM 47.0°F8.3°C 40.6°F4.8°C 78% 13.4 mph WNW21.6 kmh WNW 21.7 mph34.9 kmh 29.74 in1007.1 mb 0.05 in1.3 mm 0.00 in0.0 mm 0.09 in2.3 mm
04:55 PM 47.1°F8.4°C 40.8°F4.9°C 79% 13.1 mph WNW21.1 kmh WNW 17.7 mph28.5 kmh 29.75 in1007.5 mb 0.05 in1.3 mm 0.00 in0.0 mm 0.09 in2.3 mm
05:00 PM 47.4°F8.6°C 41.0°F5.0°C 78% 12.7 mph WNW20.4 kmh WNW 18.1 mph29.1 kmh 29.77 in1008.1 mb 0.05 in1.3 mm 0.00 in0.0 mm 0.09 in2.3 mm
05:05 PM 47.3°F8.5°C 40.2°F4.6°C 76% 13.7 mph WNW22.0 kmh WNW 23.0 mph37.0 kmh 29.77 in1008.1 mb 0.05 in1.3 mm 0.00 in0.0 mm 0.09 in2.3 mm
05:10 PM 47.1°F8.4°C 39.7°F4.3°C 75% 15.5 mph WNW24.9 kmh WNW 24.2 mph38.9 kmh 29.76 in1007.8 mb 0.00 in0.0 mm 0.00 in0.0 mm 0.09 in2.3 mm
05:15 PM 47.4°F8.6°C 39.8°F4.3°C 75% 15.6 mph W25.1 kmh W 19.9 mph32.0 kmh 29.74 in1007.1 mb 0.00 in0.0 mm 0.00 in0.0 mm 0.09 in2.3 mm
05:20 PM 47.5°F8.6°C 39.4°F4.1°C 73% 14.2 mph WNW22.9 kmh WNW 18.8 mph30.3 kmh 29.74 in1007.1 mb 0.00 in0.0 mm 0.00 in0.0 mm 0.09 in2.3 mm
05:25 PM 47.2°F8.4°C 38.5°F3.6°C 72% 15.8 mph W25.4 kmh W 23.3 mph37.5 kmh 29.74 in1007.1 mb 0.00 in0.0 mm 0.00 in0.0 mm 0.09 in2.3 mm
05:30 PM 46.9°F8.3°C 38.0°F3.3°C 71% 14.7 mph WNW23.7 kmh WNW 21.5 mph34.6 kmh 29.74 in1007.1 mb 0.00 in0.0 mm 0.00 in0.0 mm 0.09 in2.3 mm
05:35 PM 47.3°F8.5°C 37.9°F3.3°C 70% 14.0 mph WNW22.5 kmh WNW 16.3 mph26.2 kmh 29.74 in1007.1 mb 0.00 in0.0 mm 0.00 in0.0 mm 0.09 in2.3 mm
05:40 PM 47.2°F8.4°C 38.1°F3.4°C 70% 12.5 mph W20.1 kmh W 21.0 mph33.8 kmh 29.74 in1007.1 mb 0.00 in0.0 mm 0.00 in0.0 mm 0.09 in2.3 mm
05:45 PM 46.8°F8.2°C 37.6°F3.1°C 70% 12.7 mph WNW20.4 kmh WNW 25.3 mph40.7 kmh 29.74 in1007.1 mb 0.00 in0.0 mm 0.00 in0.0 mm 0.09 in2.3 mm
05:50 PM 46.5°F8.1°C 38.1°F3.4°C 72% 11.9 mph WNW19.2 kmh WNW 18.8 mph30.3 kmh 29.74 in1007.1 mb 0.00 in0.0 mm 0.00 in0.0 mm 0.09 in2.3 mm
05:55 PM 46.2°F7.9°C 38.4°F3.6°C 74% 12.0 mph NW19.3 kmh NW 16.8 mph27.0 kmh 29.75 in1007.5 mb 0.00 in0.0 mm 0.00 in0.0 mm 0.09 in2.3 mm
06:00 PM 45.9°F7.7°C 38.3°F3.5°C 75% 12.6 mph WNW20.3 kmh WNW 18.3 mph29.5 kmh 29.77 in1008.1 mb 0.00 in0.0 mm 0.00 in0.0 mm 0.09 in2.3 mm
06:05 PM 46.2°F7.9°C 38.9°F3.8°C 76% 10.1 mph WNW16.3 kmh WNW 15.0 mph24.1 kmh 29.77 in1008.1 mb 0.00 in0.0 mm 0.00 in0.0 mm 0.09 in2.3 mm
06:10 PM 46.1°F7.8°C 38.3°F3.5°C 74% 10.2 mph WNW16.4 kmh WNW 14.3 mph23.0 kmh 29.76 in1007.8 mb 0.00 in0.0 mm 0.00 in0.0 mm 0.09 in2.3 mm
06:15 PM 45.6°F7.6°C 37.8°F3.2°C 74% 10.5 mph WNW16.9 kmh WNW 16.8 mph27.0 kmh 29.74 in1007.1 mb 0.00 in0.0 mm 0.00 in0.0 mm 0.09 in2.3 mm
06:20 PM 45.2°F7.3°C 37.0°F2.8°C 73% 12.3 mph WNW19.8 kmh WNW 20.6 mph33.2 kmh 29.74 in1007.1 mb 0.00 in0.0 mm 0.00 in0.0 mm 0.09 in2.3 mm
06:25 PM 45.0°F7.2°C 37.2°F2.9°C 74% 10.0 mph WNW16.1 kmh WNW 15.4 mph24.8 kmh 29.75 in1007.5 mb 0.00 in0.0 mm 0.00 in0.0 mm 0.09 in2.3 mm
06:30 PM 44.8°F7.1°C 37.2°F2.9°C 74% 9.4 mph W15.1 kmh W 14.8 mph23.8 kmh 29.77 in1008.1 mb 0.00 in0.0 mm 0.00 in0.0 mm 0.09 in2.3 mm
06:35 PM 44.7°F7.1°C 36.8°F2.7°C 73% 10.6 mph WNW17.1 kmh WNW 22.6 mph36.4 kmh 29.77 in1008.1 mb 0.00 in0.0 mm 0.00 in0.0 mm 0.09 in2.3 mm
06:40 PM 45.1°F7.3°C 36.3°F2.4°C 71% 11.4 mph WNW18.3 kmh WNW 17.2 mph27.7 kmh 29.76 in1007.8 mb 0.00 in0.0 mm 0.00 in0.0 mm 0.09 in2.3 mm
06:45 PM 45.3°F7.4°C 36.7°F2.6°C 72% 10.8 mph WNW17.4 kmh WNW 21.0 mph33.8 kmh 29.74 in1007.1 mb 0.00 in0.0 mm 0.00 in0.0 mm 0.09 in2.3 mm
06:50 PM 45.4°F7.4°C 36.9°F2.7°C 72% 10.2 mph WNW16.4 kmh WNW 19.2 mph30.9 kmh 29.74 in1007.1 mb 0.00 in0.0 mm 0.00 in0.0 mm 0.09 in2.3 mm
06:55 PM 45.2°F7.3°C 37.6°F3.1°C 75% 9.8 mph WNW15.8 kmh WNW 19.2 mph30.9 kmh 29.75 in1007.5 mb 0.00 in0.0 mm 0.00 in0.0 mm 0.09 in2.3 mm
07:00 PM 45.0°F7.2°C 37.6°F3.1°C 75% 12.1 mph WNW19.5 kmh WNW 16.3 mph26.2 kmh 29.77 in1008.1 mb 0.00 in0.0 mm 0.00 in0.0 mm 0.09 in2.3 mm
07:05 PM 45.0°F7.2°C 37.6°F3.1°C 75% 14.9 mph WNW24.0 kmh WNW 23.9 mph38.5 kmh 29.77 in1008.1 mb 0.00 in0.0 mm 0.00 in0.0 mm 0.09 in2.3 mm
07:10 PM 44.2°F6.8°C 37.8°F3.2°C 78% 14.0 mph NW22.5 kmh NW 27.7 mph44.6 kmh 29.78 in1008.5 mb 0.00 in0.0 mm 0.00 in0.0 mm 0.09 in2.3 mm
07:15 PM 43.4°F6.3°C 37.8°F3.2°C 80% 11.4 mph WNW18.3 kmh WNW 16.6 mph26.7 kmh 29.80 in1009.1 mb 0.00 in0.0 mm 0.00 in0.0 mm 0.09 in2.3 mm
07:20 PM 42.9°F6.1°C 37.3°F2.9°C 80% 11.4 mph WNW18.3 kmh WNW 18.6 mph29.9 kmh 29.80 in1009.1 mb 0.00 in0.0 mm 0.00 in0.0 mm 0.09 in2.3 mm
07:25 PM 42.5°F5.8°C 36.6°F2.6°C 80% 10.3 mph WNW16.6 kmh WNW 16.3 mph26.2 kmh 29.80 in1009.1 mb 0.00 in0.0 mm 0.00 in0.0 mm 0.09 in2.3 mm
07:30 PM 42.3°F5.7°C 35.9°F2.2°C 78% 10.7 mph W17.2 kmh W 15.4 mph24.8 kmh 29.80 in1009.1 mb 0.00 in0.0 mm 0.00 in0.0 mm 0.09 in2.3 mm
07:35 PM 42.3°F5.7°C 36.1°F2.3°C 79% 9.8 mph WNW15.8 kmh WNW 14.8 mph23.8 kmh 29.80 in1009.1 mb 0.00 in0.0 mm 0.00 in0.0 mm 0.09 in2.3 mm
07:40 PM 42.5°F5.8°C 36.0°F2.2°C 78% 11.3 mph WNW18.2 kmh WNW 17.2 mph27.7 kmh 29.82 in1009.8 mb 0.00 in0.0 mm 0.00 in0.0 mm 0.09 in2.3 mm
07:45 PM 42.7°F5.9°C 36.5°F2.5°C 78% 9.8 mph WNW15.8 kmh WNW 18.3 mph29.5 kmh 29.83 in1010.2 mb 0.00 in0.0 mm 0.00 in0.0 mm 0.09 in2.3 mm
07:50 PM 42.3°F5.7°C 36.4°F2.4°C 80% 9.4 mph WNW15.1 kmh WNW 15.9 mph25.6 kmh 29.83 in1010.2 mb 0.00 in0.0 mm 0.00 in0.0 mm 0.09 in2.3 mm
07:55 PM 41.7°F5.4°C 36.2°F2.3°C 81% 5.8 mph WNW9.3 kmh WNW 9.8 mph15.8 kmh 29.84 in1010.5 mb 0.00 in0.0 mm 0.00 in0.0 mm 0.09 in2.3 mm
08:00 PM 41.2°F5.1°C 35.8°F2.1°C 81% 5.5 mph WNW8.9 kmh WNW 10.1 mph16.3 kmh 29.84 in1010.5 mb 0.00 in0.0 mm 0.00 in0.0 mm 0.09 in2.3 mm
08:05 PM 40.8°F4.9°C 35.8°F2.1°C 82% 5.6 mph WNW9.0 kmh WNW 8.7 mph14.0 kmh 29.84 in1010.5 mb 0.00 in0.0 mm 0.00 in0.0 mm 0.09 in2.3 mm
08:10 PM 40.6°F4.8°C 35.8°F2.1°C 83% 6.4 mph WNW10.3 kmh WNW 11.6 mph18.7 kmh 29.84 in1010.5 mb 0.00 in0.0 mm 0.00 in0.0 mm 0.09 in2.3 mm
08:15 PM 40.6°F4.8°C 35.4°F1.9°C 82% 7.7 mph WNW12.4 kmh WNW 11.2 mph18.0 kmh 29.84 in1010.5 mb 0.00 in0.0 mm 0.00 in0.0 mm 0.09 in2.3 mm
08:20 PM 40.8°F4.9°C 35.2°F1.8°C 80% 6.6 mph W10.6 kmh W 12.3 mph19.8 kmh 29.84 in1010.5 mb 0.00 in0.0 mm 0.00 in0.0 mm 0.09 in2.3 mm
08:25 PM 40.9°F4.9°C 35.0°F1.7°C 79% 6.8 mph W10.9 kmh W 9.4 mph15.1 kmh 29.84 in1010.5 mb 0.00 in0.0 mm 0.00 in0.0 mm 0.09 in2.3 mm
08:30 PM 40.9°F4.9°C 34.9°F1.6°C 79% 6.6 mph WNW10.6 kmh WNW 11.4 mph18.3 kmh 29.84 in1010.5 mb 0.00 in0.0 mm 0.00 in0.0 mm 0.09 in2.3 mm
08:35 PM 41.0°F5.0°C 34.7°F1.5°C 78% 6.0 mph W9.7 kmh W 8.9 mph14.3 kmh 29.84 in1010.5 mb 0.00 in0.0 mm 0.00 in0.0 mm 0.09 in2.3 mm
08:40 PM 41.0°F5.0°C 34.4°F1.3°C 77% 5.8 mph WSW9.3 kmh WSW 9.8 mph15.8 kmh 29.82 in1009.8 mb 0.00 in0.0 mm 0.00 in0.0 mm 0.09 in2.3 mm
08:45 PM 41.0°F5.0°C 33.9°F1.1°C 76% 5.7 mph W9.2 kmh W 8.5 mph13.7 kmh 29.80 in1009.1 mb 0.00 in0.0 mm 0.00 in0.0 mm 0.09 in2.3 mm
08:50 PM 41.2°F5.1°C 33.6°F0.9°C 74% 6.2 mph W10.0 kmh W 9.4 mph15.1 kmh 29.80 in1009.1 mb 0.00 in0.0 mm 0.00 in0.0 mm 0.09 in2.3 mm
08:55 PM 41.2°F5.1°C 33.5°F0.8°C 74% 6.4 mph W10.3 kmh W 11.2 mph18.0 kmh 29.80 in1009.1 mb 0.00 in0.0 mm 0.00 in0.0 mm 0.09 in2.3 mm
09:00 PM 41.1°F5.1°C 33.5°F0.8°C 74% 5.8 mph W9.3 kmh W 8.9 mph14.3 kmh 29.80 in1009.1 mb 0.00 in0.0 mm 0.00 in0.0 mm 0.09 in2.3 mm
09:05 PM 41.1°F5.1°C 33.2°F0.7°C 73% 7.2 mph W11.6 kmh W 11.2 mph18.0 kmh 29.80 in1009.1 mb 0.00 in0.0 mm 0.00 in0.0 mm 0.09 in2.3 mm
09:10 PM 41.3°F5.2°C 33.5°F0.8°C 74% 6.1 mph WSW9.8 kmh WSW 7.4 mph11.9 kmh 29.80 in1009.1 mb 0.00 in0.0 mm 0.00 in0.0 mm 0.09 in2.3 mm
09:15 PM 41.2°F5.1°C 33.5°F0.8°C 74% 5.1 mph WSW8.2 kmh WSW 7.8 mph12.6 kmh 29.80 in1009.1 mb 0.00 in0.0 mm 0.00 in0.0 mm 0.09 in2.3 mm
09:20 PM 41.2°F5.1°C 33.6°F0.9°C 74% 5.9 mph W9.5 kmh W 9.4 mph15.1 kmh 29.80 in1009.1 mb 0.00 in0.0 mm 0.00 in0.0 mm 0.09 in2.3 mm
09:25 PM 41.4°F5.2°C 33.9°F1.1°C 74% 5.8 mph W9.3 kmh W 8.9 mph14.3 kmh 29.80 in1009.1 mb 0.00 in0.0 mm 0.00 in0.0 mm 0.09 in2.3 mm
09:30 PM 41.5°F5.3°C 34.3°F1.3°C 75% 6.1 mph W9.8 kmh W 8.9 mph14.3 kmh 29.80 in1009.1 mb 0.00 in0.0 mm 0.00 in0.0 mm 0.09 in2.3 mm
09:35 PM 41.9°F5.5°C 34.6°F1.4°C 75% 6.6 mph W10.6 kmh W 12.3 mph19.8 kmh 29.80 in1009.1 mb 0.00 in0.0 mm 0.00 in0.0 mm 0.09 in2.3 mm
09:40 PM 42.4°F5.8°C 35.1°F1.7°C 75% 7.8 mph W12.6 kmh W 10.7 mph17.2 kmh 29.80 in1009.1 mb 0.00 in0.0 mm 0.00 in0.0 mm 0.09 in2.3 mm
09:45 PM 42.8°F6.0°C 35.7°F2.1°C 76% 10.6 mph WNW17.1 kmh WNW 14.3 mph23.0 kmh 29.80 in1009.1 mb 0.00 in0.0 mm 0.00 in0.0 mm 0.09 in2.3 mm
09:50 PM 42.8°F6.0°C 36.2°F2.3°C 77% 8.3 mph WNW13.4 kmh WNW 13.6 mph21.9 kmh 29.80 in1009.1 mb 0.00 in0.0 mm 0.00 in0.0 mm 0.09 in2.3 mm
09:55 PM 42.7°F5.9°C 36.5°F2.5°C 79% 7.1 mph WNW11.4 kmh WNW 11.2 mph18.0 kmh 29.80 in1009.1 mb 0.00 in0.0 mm 0.00 in0.0 mm 0.09 in2.3 mm
10:00 PM 42.5°F5.8°C 36.8°F2.7°C 80% 5.9 mph NW9.5 kmh NW 11.2 mph18.0 kmh 29.80 in1009.1 mb 0.00 in0.0 mm 0.00 in0.0 mm 0.09 in2.3 mm
10:05 PM 42.1°F5.6°C 36.7°F2.6°C 81% 5.4 mph WNW8.7 kmh WNW 7.8 mph12.6 kmh 29.80 in1009.1 mb 0.00 in0.0 mm 0.00 in0.0 mm 0.09 in2.3 mm
10:10 PM 41.5°F5.3°C 36.5°F2.5°C 82% 7.0 mph W11.3 kmh W 11.4 mph18.3 kmh 29.80 in1009.1 mb 0.00 in0.0 mm 0.00 in0.0 mm 0.09 in2.3 mm
10:15 PM 41.3°F5.2°C 36.2°F2.3°C 82% 5.7 mph W9.2 kmh W 9.4 mph15.1 kmh 29.80 in1009.1 mb 0.00 in0.0 mm 0.00 in0.0 mm 0.09 in2.3 mm
10:20 PM 41.0°F5.0°C 36.3°F2.4°C 83% 6.6 mph W10.6 kmh W 12.5 mph20.1 kmh 29.80 in1009.1 mb 0.00 in0.0 mm 0.00 in0.0 mm 0.09 in2.3 mm
10:25 PM 41.0°F5.0°C 36.1°F2.3°C 82% 8.5 mph W13.7 kmh W 13.4 mph21.6 kmh 29.80 in1009.1 mb 0.00 in0.0 mm 0.00 in0.0 mm 0.09 in2.3 mm
10:30 PM 41.5°F5.3°C 36.2°F2.3°C 81% 9.0 mph W14.5 kmh W 13.4 mph21.6 kmh 29.77 in1008.1 mb 0.00 in0.0 mm 0.00 in0.0 mm 0.09 in2.3 mm
10:35 PM 41.8°F5.4°C 36.2°F2.3°C 80% 9.7 mph W15.6 kmh W 16.1 mph25.9 kmh 29.77 in1008.1 mb 0.00 in0.0 mm 0.00 in0.0 mm 0.09 in2.3 mm
10:40 PM 42.1°F5.6°C 36.5°F2.5°C 80% 8.7 mph W14.0 kmh W 11.0 mph17.7 kmh 29.79 in1008.8 mb 0.00 in0.0 mm 0.00 in0.0 mm 0.09 in2.3 mm
10:45 PM 42.2°F5.7°C 36.8°F2.7°C 81% 9.6 mph W15.4 kmh W 13.4 mph21.6 kmh 29.80 in1009.1 mb 0.00 in0.0 mm 0.00 in0.0 mm 0.09 in2.3 mm
10:50 PM 42.0°F5.6°C 36.9°F2.7°C 82% 10.1 mph WNW16.3 kmh WNW 16.1 mph25.9 kmh 29.80 in1009.1 mb 0.00 in0.0 mm 0.00 in0.0 mm 0.09 in2.3 mm
10:55 PM 41.8°F5.4°C 36.8°F2.7°C 82% 8.2 mph W13.2 kmh W 13.0 mph20.9 kmh 29.80 in1009.1 mb 0.00 in0.0 mm 0.00 in0.0 mm 0.09 in2.3 mm
11:00 PM 41.7°F5.4°C 36.7°F2.6°C 82% 10.0 mph W16.1 kmh W 14.1 mph22.7 kmh 29.77 in1008.1 mb 0.00 in0.0 mm 0.00 in0.0 mm 0.09 in2.3 mm
11:05 PM 41.8°F5.4°C 36.7°F2.6°C 82% 11.0 mph WNW17.7 kmh WNW 15.2 mph24.5 kmh 29.77 in1008.1 mb 0.00 in0.0 mm 0.00 in0.0 mm 0.09 in2.3 mm
11:10 PM 41.8°F5.4°C 36.7°F2.6°C 82% 14.8 mph WNW23.8 kmh WNW 27.1 mph43.6 kmh 29.79 in1008.8 mb 0.00 in0.0 mm 0.00 in0.0 mm 0.09 in2.3 mm
11:15 PM 41.5°F5.3°C 36.1°F2.3°C 81% 15.5 mph WNW24.9 kmh WNW 25.1 mph40.4 kmh 29.80 in1009.1 mb 0.00 in0.0 mm 0.00 in0.0 mm 0.09 in2.3 mm
11:20 PM 41.3°F5.2°C 35.9°F2.2°C 81% 12.8 mph W20.6 kmh W 18.3 mph29.5 kmh 29.80 in1009.1 mb 0.00 in0.0 mm 0.00 in0.0 mm 0.09 in2.3 mm
11:25 PM 41.3°F5.2°C 36.2°F2.3°C 82% 9.8 mph WNW15.8 kmh WNW 15.4 mph24.8 kmh 29.80 in1009.1 mb 0.00 in0.0 mm 0.00 in0.0 mm 0.09 in2.3 mm
11:30 PM 41.2°F5.1°C 36.2°F2.3°C 82% 8.9 mph W14.3 kmh W 12.3 mph19.8 kmh 29.77 in1008.1 mb 0.00 in0.0 mm 0.00 in0.0 mm 0.09 in2.3 mm
11:35 PM 41.4°F5.2°C 36.6°F2.6°C 83% 9.9 mph WNW15.9 kmh WNW 14.1 mph22.7 kmh 29.77 in1008.1 mb 0.00 in0.0 mm 0.00 in0.0 mm 0.09 in2.3 mm
11:40 PM 41.3°F5.2°C 36.9°F2.7°C 84% 9.7 mph W15.6 kmh W 16.6 mph26.7 kmh 29.77 in1008.1 mb 0.00 in0.0 mm 0.00 in0.0 mm 0.09 in2.3 mm
11:45 PM 41.4°F5.2°C 37.7°F3.2°C 87% 11.2 mph WNW18.0 kmh WNW 15.7 mph25.3 kmh 29.77 in1008.1 mb 0.00 in0.0 mm 0.00 in0.0 mm 0.09 in2.3 mm
11:50 PM 41.3°F5.2°C 37.8°F3.2°C 88% 13.6 mph WNW21.9 kmh WNW 19.2 mph30.9 kmh 29.77 in1008.1 mb 0.04 in1.0 mm 0.48 in12.2 mm 0.13 in3.3 mm
11:55 PM 40.8°F4.9°C 37.8°F3.2°C 89% 12.9 mph WNW20.8 kmh WNW 20.4 mph32.8 kmh 29.80 in1009.1 mb 0.04 in1.0 mm 0.00 in0.0 mm 0.13 in3.3 mm